メインページ
METAR-TAF:

METAR-TAF

空港 :

Whale Cove, ヌナブト準州, カナダ

緯度: 62-14N, 経度: 092-36W, 海抜: 20m

現時点の気象観測

当レポートは12時間38分前の23:00(UTC)に作成
西の風 11kt
気温 -29°C
湿度 75%
気圧 1013 hPa
視程: 24.1km
高度2000ftの雲はほとんどない

METAR: CYXN 132300Z 28011KT 15SM FEW020 M29/M32 A2991 RMK SC1 LAST STFD OBS/NXT 141500Z SLP134

時間: 05:38 (11:38 UTC)


TAF: 見つかりません

4,000以上の空港の気象観測と天気予報(METAR報とTAF報)

利用可能な観測所は地図上に黄色い丸と赤い丸で示す。

丸の上にカーソルを重ねると観測所名を参照できる。

次にクリックすると気象観測と天気予報を参照できる。

マップの切り替え:黒色「×」印の緑ボタンをクリックして拡大、「-」印の緑ボタンをクリックして縮小、緑色の三角印をクリックして隣りの地図に切り替え


METAR-TAF: